Time;durP1;ratioP1;P1;durP2;ratioP2;P2;SDS_P1;SDS_P2;PMS_P1;PMS_P2;Temp;Humidity;BMP_temperature;BMP_pressure;BME280_temperature;BME280_humidity;BME280_pressure;Samples;Min_cycle;Max_cycle;Signal;HPM_P1;HPM_P2
2020/12/10 00:00:22;;;;;;;21.15;13.55;;;2.80;62.40;;;;;;5007150;28;20233;-83
2020/12/10 00:02:49;;;;;;;22.73;12.85;;;2.80;61.50;;;;;;5006630;28;20224;-79
2020/12/10 00:05:15;;;;;;;22.48;12.50;;;2.80;61.30;;;;;;5001307;28;20205;-81
2020/12/10 00:07:43;;;;;;;20.77;12.20;;;2.80;61.70;;;;;;5004271;28;20235;-80
2020/12/10 00:10:10;;;;;;;23.70;13.50;;;2.80;61.20;;;;;;5008328;28;20243;-81
2020/12/10 00:12:40;;;;;;;20.17;12.10;;;2.80;61.80;;;;;;5007918;28;20229;-80
2020/12/10 00:15:06;;;;;;;22.73;13.02;;;2.80;61.20;;;;;;5011809;28;20268;-82
2020/12/10 00:17:33;;;;;;;18.20;11.73;;;2.80;61.00;;;;;;5012475;28;20242;-81
2020/12/10 00:19:59;;;;;;;18.92;12.43;;;2.80;61.30;;;;;;5003153;28;20232;-81
2020/12/10 00:25:47;;;;;;;16.63;11.50;;;2.80;61.90;;;;;;4978251;28;20287;-83
2020/12/10 00:28:13;;;;;;;24.67;13.25;;;2.80;61.70;;;;;;4981952;28;20231;-83
2020/12/10 00:30:40;;;;;;;21.75;12.93;;;2.80;61.60;;;;;;4987700;28;20292;-83
2020/12/10 00:33:06;;;;;;;22.77;13.27;;;2.80;62.50;;;;;;4981852;28;20233;-82
2020/12/10 00:35:33;;;;;;;21.40;11.70;;;2.80;61.60;;;;;;4980001;28;20676;-81
2020/12/10 00:37:59;;;;;;;18.85;11.85;;;2.80;61.70;;;;;;4980254;28;20263;-81
2020/12/10 00:40:26;;;;;;;19.30;11.88;;;2.90;62.30;;;;;;4988651;28;20292;-82
2020/12/10 00:42:53;;;;;;;21.70;14.13;;;2.90;61.50;;;;;;4995207;28;20229;-81
2020/12/10 00:45:20;;;;;;;23.70;12.43;;;2.90;61.00;;;;;;4989068;28;20205;-83
2020/12/10 00:47:46;;;;;;;20.75;13.20;;;2.90;61.00;;;;;;4982627;28;20205;-82
2020/12/10 00:50:13;;;;;;;22.30;13.60;;;2.90;61.30;;;;;;4981007;28;20233;-81
2020/12/10 00:52:40;;;;;;;20.13;12.10;;;2.90;61.70;;;;;;4979608;28;20230;-81
2020/12/10 00:55:06;;;;;;;20.08;12.65;;;3.00;62.20;;;;;;4979823;28;20255;-81
2020/12/10 00:57:33;;;;;;;20.52;12.75;;;3.00;61.70;;;;;;4978808;28;20301;-81
2020/12/10 01:00:00;;;;;;;19.45;11.45;;;3.00;61.90;;;;;;4980042;28;20227;-82
2020/12/10 01:02:27;;;;;;;23.58;11.40;;;3.00;61.50;;;;;;5000912;28;20259;-82
2020/12/10 01:04:53;;;;;;;21.50;12.63;;;3.00;61.60;;;;;;5021913;28;20235;-82
2020/12/10 01:07:20;;;;;;;20.00;12.38;;;3.00;61.40;;;;;;5020851;28;20196;-82
2020/12/10 01:09:46;;;;;;;18.77;11.25;;;3.00;61.40;;;;;;5021500;28;20234;-83
2020/12/10 01:12:13;;;;;;;19.52;13.55;;;3.00;61.40;;;;;;5021978;28;20267;-83
2020/12/10 01:14:40;;;;;;;19.70;12.02;;;3.00;61.80;;;;;;5022198;28;20235;-84
2020/12/10 01:17:07;;;;;;;17.98;11.30;;;3.00;61.50;;;;;;5021679;28;20212;-82
2020/12/10 01:19:33;;;;;;;18.50;12.05;;;3.00;61.50;;;;;;5019750;28;20229;-83
2020/12/10 01:22:00;;;;;;;19.40;11.80;;;3.00;61.40;;;;;;5025650;28;20242;-82
2020/12/10 01:24:26;;;;;;;20.15;13.30;;;2.90;61.60;;;;;;5026860;28;20215;-83
2020/12/10 01:26:53;;;;;;;16.92;11.63;;;2.90;62.00;;;;;;5023536;28;20232;-82
2020/12/10 01:29:20;;;;;;;19.67;12.05;;;2.90;61.60;;;;;;5023867;28;20719;-84
2020/12/10 01:31:47;;;;;;;18.95;11.73;;;2.90;62.00;;;;;;5022677;28;20255;-83
2020/12/10 01:34:15;;;;;;;21.25;12.32;;;3.00;62.60;;;;;;5019813;28;20203;-82
2020/12/10 01:36:41;;;;;;;19.08;12.10;;;2.90;61.50;;;;;;5026297;28;20236;-84
2020/12/10 01:39:08;;;;;;;19.20;11.35;;;2.90;62.20;;;;;;5035254;28;20227;-85
2020/12/10 01:41:35;;;;;;;19.55;10.82;;;3.00;61.90;;;;;;5035020;28;20226;-82
2020/12/10 01:44:03;;;;;;;20.40;12.77;;;3.00;62.10;;;;;;5030547;28;20228;-82
2020/12/10 01:46:30;;;;;;;20.02;12.23;;;3.00;61.80;;;;;;5032220;28;20208;-85
2020/12/10 01:48:57;;;;;;;19.33;12.32;;;3.00;61.70;;;;;;5026912;28;20243;-83
2020/12/10 01:51:47;;;;;;;20.30;12.20;;;3.10;60.80;;;;;;5024822;28;20857;-81
2020/12/10 01:54:14;;;;;;;21.35;12.88;;;2.90;60.10;;;;;;5021091;28;20270;-83
2020/12/10 01:56:40;;;;;;;21.00;12.70;;;2.80;60.40;;;;;;5021005;28;20743;-81
2020/12/10 01:59:07;;;;;;;20.00;11.25;;;2.90;60.60;;;;;;5018999;28;20254;-81
2020/12/10 02:01:34;;;;;;;20.55;13.02;;;2.90;60.90;;;;;;5021108;28;20235;-83
2020/12/10 02:04:01;;;;;;;20.52;12.18;;;2.90;61.10;;;;;;5020233;28;20236;-82
2020/12/10 02:06:28;;;;;;;19.15;11.55;;;2.90;61.20;;;;;;5028992;28;20216;-84
2020/12/10 02:08:56;;;;;;;19.40;12.95;;;2.80;60.80;;;;;;5035162;28;20216;-83
2020/12/10 02:11:24;;;;;;;18.42;12.60;;;2.80;60.80;;;;;;5031084;28;20212;-83
2020/12/10 02:13:51;;;;;;;17.70;11.45;;;2.90;61.10;;;;;;5020622;28;20228;-79
2020/12/10 02:16:18;;;;;;;20.23;12.90;;;3.00;60.70;;;;;;5020395;28;20220;-82
2020/12/10 02:18:45;;;;;;;22.42;12.38;;;3.00;60.10;;;;;;5026270;28;20204;-83
2020/12/10 02:21:12;;;;;;;20.25;12.68;;;2.90;60.40;;;;;;5024369;28;20211;-84
2020/12/10 02:23:40;;;;;;;20.45;12.50;;;2.90;60.50;;;;;;5019527;28;20260;-82
2020/12/10 02:26:06;;;;;;;17.50;11.88;;;2.90;60.60;;;;;;5021961;28;20695;-81
2020/12/10 02:28:33;;;;;;;24.08;12.18;;;3.00;60.50;;;;;;5021670;28;20275;-82
2020/12/10 02:30:59;;;;;;;22.17;12.98;;;3.00;60.40;;;;;;5022847;28;20223;-83
2020/12/10 02:33:26;;;;;;;20.42;12.00;;;3.00;60.30;;;;;;5023398;28;20262;-82
2020/12/10 02:35:52;;;;;;;19.20;11.63;;;3.00;60.50;;;;;;5024013;28;20200;-81
2020/12/10 02:38:19;;;;;;;20.20;12.40;;;3.10;60.20;;;;;;5033982;28;20199;-82
2020/12/10 02:40:47;;;;;;;20.33;13.02;;;3.00;60.00;;;;;;5037216;28;20212;-81
2020/12/10 02:43:15;;;;;;;16.95;10.55;;;3.10;60.10;;;;;;5038154;28;20331;-84
2020/12/10 03:45:56;;;;;;;17.90;12.23;;;2.50;64.90;;;;;;5095044;23;20253;-80
2020/12/10 03:49:19;;;;;;;21.05;13.05;;;2.50;65.00;;;;;;5038640;28;20195;-79
2020/12/10 03:51:48;;;;;;;24.05;13.35;;;2.50;66.10;;;;;;4978805;29;20202;-80
2020/12/10 03:54:15;;;;;;;21.10;12.73;;;2.40;66.20;;;;;;4959055;28;20218;-81
2020/12/10 03:56:42;;;;;;;21.65;13.30;;;2.50;66.20;;;;;;4959327;28;20190;-80
2020/12/10 03:59:09;;;;;;;19.17;11.45;;;2.50;66.10;;;;;;4959565;28;20650;-81
2020/12/10 04:01:37;;;;;;;21.60;13.35;;;2.50;66.40;;;;;;4959438;28;20282;-80
2020/12/10 04:04:04;;;;;;;22.25;13.35;;;2.40;66.50;;;;;;4959540;28;20273;-81
2020/12/10 04:06:31;;;;;;;17.45;11.60;;;2.50;66.00;;;;;;4959629;28;20198;-79
2020/12/10 04:08:58;;;;;;;23.55;13.13;;;2.50;66.00;;;;;;4959015;28;20257;-79
2020/12/10 04:11:25;;;;;;;25.05;13.80;;;2.50;67.30;;;;;;4959487;28;20255;-80
2020/12/10 04:13:54;;;;;;;22.17;14.18;;;2.50;66.60;;;;;;4959398;28;20304;-81
2020/12/10 04:16:21;;;;;;;22.50;13.18;;;2.40;66.70;;;;;;4954655;29;20238;-80
2020/12/10 04:18:49;;;;;;;20.20;12.50;;;2.40;66.50;;;;;;4952503;29;20210;-80
2020/12/10 04:21:16;;;;;;;22.90;13.35;;;2.40;66.80;;;;;;4953124;29;20255;-80
2020/12/10 04:23:44;;;;;;;21.25;12.85;;;2.40;67.40;;;;;;4955906;28;20222;-80
2020/12/10 04:26:14;;;;;;;20.40;13.52;;;2.20;67.20;;;;;;4958165;28;20217;-79
2020/12/10 04:28:41;;;;;;;21.65;13.38;;;2.30;67.70;;;;;;4983550;28;20231;-79
2020/12/10 04:31:08;;;;;;;23.30;14.27;;;2.30;67.90;;;;;;5015819;28;20216;-79
2020/12/10 04:33:34;;;;;;;21.33;12.10;;;2.30;67.50;;;;;;5014129;28;20221;-80
2020/12/10 04:36:02;;;;;;;22.77;12.25;;;2.40;67.80;;;;;;5014163;28;20212;-80
2020/12/10 04:38:29;;;;;;;23.88;13.32;;;2.30;67.20;;;;;;5017838;28;20200;-80
2020/12/10 04:40:55;;;;;;;21.63;12.43;;;2.40;68.00;;;;;;5018350;28;20196;-81
2020/12/10 04:43:26;;;;;;;22.80;12.40;;;2.40;67.60;;;;;;5018435;28;20220;-79
2020/12/10 04:45:57;;;;;;;18.55;12.77;;;2.30;67.20;;;;;;5018779;28;20196;-80
2020/12/10 04:48:26;;;;;;;23.02;13.95;;;2.30;67.60;;;;;;5017983;28;20216;-78
2020/12/10 04:50:55;;;;;;;26.08;14.15;;;2.30;68.00;;;;;;5015653;28;20193;-80
2020/12/10 04:53:24;;;;;;;21.63;13.00;;;2.20;68.60;;;;;;5014540;28;20256;-81
2020/12/10 04:55:53;;;;;;;26.38;13.85;;;2.40;68.30;;;;;;5013663;28;20220;-81
2020/12/10 04:58:19;;;;;;;24.00;14.07;;;2.40;68.00;;;;;;5013286;28;20268;-80
2020/12/10 05:00:46;;;;;;;21.65;13.52;;;2.40;67.70;;;;;;5016434;28;20220;-80
2020/12/10 05:03:14;;;;;;;24.25;14.30;;;2.40;67.40;;;;;;5016676;28;20217;-80
2020/12/10 05:06:09;;;;;;;21.25;12.30;;;2.30;66.60;;;;;;5015688;28;20228;-80
2020/12/10 05:09:17;;;;;;;21.10;12.57;;;2.30;67.00;;;;;;5012120;28;20204;-80
2020/12/10 05:11:45;;;;;;;20.63;12.85;;;2.50;66.60;;;;;;4991280;28;20216;-81
2020/12/10 05:14:11;;;;;;;22.35;12.25;;;2.50;66.60;;;;;;4992606;28;20236;-80
2020/12/10 05:16:38;;;;;;;22.33;12.25;;;2.50;66.60;;;;;;4991838;28;20213;-79
2020/12/10 05:19:21;;;;;;;24.42;12.50;;;2.40;66.50;;;;;;4992129;28;20220;-80
2020/12/10 05:22:01;;;;;;;23.67;12.90;;;2.50;66.60;;;;;;4992511;28;20205;-80
2020/12/10 05:24:30;;;;;;;19.42;11.75;;;2.50;66.60;;;;;;4992637;28;20285;-79
2020/12/10 05:27:20;;;;;;;22.95;12.98;;;2.60;66.60;;;;;;4992105;28;20197;-79
2020/12/10 05:29:47;;;;;;;19.80;12.00;;;2.60;65.80;;;;;;4997033;28;20205;-80
2020/12/10 05:32:33;;;;;;;18.75;11.68;;;2.30;66.40;;;;;;4996732;28;20213;-77
2020/12/10 05:35:12;;;;;;;16.98;11.05;;;2.30;66.40;;;;;;4997057;28;20182;-79
2020/12/10 05:37:38;;;;;;;22.50;12.85;;;2.40;66.50;;;;;;4997027;28;20223;-78
2020/12/10 05:40:06;;;;;;;20.75;12.80;;;2.30;66.40;;;;;;4996879;28;20206;-80
2020/12/10 05:42:37;;;;;;;19.55;12.75;;;2.40;66.40;;;;;;4996751;28;20225;-79
2020/12/10 05:45:11;;;;;;;20.02;12.70;;;2.30;66.40;;;;;;4996715;28;20252;-79
2020/12/10 05:47:56;;;;;;;20.35;13.73;;;2.50;66.80;;;;;;4995866;28;20199;-79
2020/12/10 05:50:26;;;;;;;19.95;12.23;;;2.40;65.90;;;;;;4996885;28;20213;-79
2020/12/10 05:53:10;;;;;;;23.67;13.77;;;2.40;66.50;;;;;;4996893;28;20221;-79
2020/12/10 05:55:40;;;;;;;24.92;12.48;;;2.30;66.40;;;;;;4996700;28;20242;-78
2020/12/10 05:58:07;;;;;;;21.45;13.48;;;2.30;66.40;;;;;;4996320;28;20237;-79
2020/12/10 06:00:35;;;;;;;21.52;13.68;;;2.30;67.10;;;;;;4999766;28;20244;-79
2020/12/10 06:03:03;;;;;;;21.25;12.07;;;2.40;67.20;;;;;;5000524;28;20213;-80
2020/12/10 06:05:30;;;;;;;19.50;13.10;;;2.40;67.00;;;;;;5000633;28;20189;-80
2020/12/10 06:08:01;;;;;;;21.73;13.00;;;2.40;66.50;;;;;;5000788;28;20204;-79
2020/12/10 06:10:28;;;;;;;22.00;12.68;;;2.30;66.90;;;;;;5000757;28;20236;-79
2020/12/10 06:12:58;;;;;;;21.50;12.98;;;2.50;67.50;;;;;;5000392;28;20348;-80
2020/12/10 06:15:26;;;;;;;20.05;12.00;;;2.40;66.80;;;;;;5000427;28;20189;-80
2020/12/10 06:18:03;;;;;;;21.58;12.18;;;2.30;67.10;;;;;;5000175;28;20197;-77
2020/12/10 06:20:38;;;;;;;22.05;12.95;;;2.50;67.70;;;;;;5000261;28;20193;-78
2020/12/10 06:23:31;;;;;;;21.98;12.68;;;2.50;67.20;;;;;;5000293;28;20280;-79
2020/12/10 06:25:59;;;;;;;21.23;12.73;;;2.50;67.20;;;;;;4998410;28;20217;-81
2020/12/10 06:28:28;;;;;;;21.63;12.40;;;2.30;67.10;;;;;;5000126;28;20405;-79
2020/12/10 06:31:05;;;;;;;23.20;12.57;;;2.30;68.20;;;;;;5000092;28;20236;-79
2020/12/10 06:33:38;;;;;;;20.30;12.02;;;2.40;67.70;;;;;;4999982;28;20225;-80
2020/12/10 06:36:22;;;;;;;19.90;12.18;;;2.40;68.10;;;;;;4999919;28;20201;-80
2020/12/10 06:38:49;;;;;;;21.38;13.02;;;2.40;68.20;;;;;;5000183;28;20260;-78
2020/12/10 06:47:42;;;;;;;17.30;11.75;;;2.50;68.10;;;;;;4998446;28;20260;-82
2020/12/10 06:50:26;;;;;;;21.67;11.85;;;2.40;67.90;;;;;;4998913;28;20243;-82
2020/12/10 06:53:17;;;;;;;22.88;12.00;;;2.30;67.80;;;;;;5008912;28;20220;-81
2020/12/10 06:56:11;;;;;;;24.00;15.15;;;2.40;68.50;;;;;;5020559;28;20231;-80
2020/12/10 06:58:53;;;;;;;20.45;12.82;;;2.30;68.10;;;;;;5011763;28;20196;-80
2020/12/10 07:01:29;;;;;;;22.20;12.85;;;2.20;69.40;;;;;;5015767;28;20215;-80
2020/12/10 07:04:17;;;;;;;24.75;12.48;;;2.30;70.60;;;;;;5017656;28;20232;-82
2020/12/10 07:06:44;;;;;;;22.63;12.88;;;2.30;69.60;;;;;;5019400;28;20197;-81
2020/12/10 07:09:14;;;;;;;30.38;14.23;;;2.40;69.30;;;;;;5019862;28;20205;-80
2020/12/10 07:11:42;;;;;;;24.05;12.32;;;2.40;68.70;;;;;;5019057;28;20187;-82
2020/12/10 07:14:23;;;;;;;21.67;12.45;;;2.30;69.10;;;;;;5019595;28;20209;-80
2020/12/10 07:16:50;;;;;;;22.98;12.57;;;2.40;68.70;;;;;;5019385;28;20196;-80
2020/12/10 07:19:33;;;;;;;20.40;13.10;;;2.30;67.90;;;;;;5020145;28;20216;-82
2020/12/10 07:22:05;;;;;;;18.73;12.85;;;2.40;68.30;;;;;;5020225;28;20215;-81
2020/12/10 07:24:36;;;;;;;24.70;13.60;;;2.30;67.70;;;;;;5020243;28;20203;-81
2020/12/10 07:27:04;;;;;;;20.50;12.52;;;2.40;68.00;;;;;;5000137;28;20173;-82
2020/12/10 07:29:30;;;;;;;21.52;11.82;;;2.40;67.50;;;;;;5000574;28;20213;-80
2020/12/10 07:31:57;;;;;;;23.17;11.93;;;2.40;67.30;;;;;;5000563;28;20194;-81
2020/12/10 07:34:25;;;;;;;27.75;13.93;;;2.30;67.80;;;;;;5000413;28;20197;-81
2020/12/10 07:36:55;;;;;;;24.52;13.50;;;2.20;68.60;;;;;;4999567;28;20193;-81
2020/12/10 07:39:29;;;;;;;19.50;11.45;;;2.20;69.10;;;;;;4999488;28;20181;-80
2020/12/10 07:41:57;;;;;;;17.65;11.80;;;2.30;67.60;;;;;;4950790;28;20228;-80
2020/12/10 07:44:29;;;;;;;19.42;11.98;;;2.20;67.00;;;;;;4999323;28;20197;-80
2020/12/10 07:46:56;;;;;;;19.52;11.18;;;2.20;66.80;;;;;;4998864;28;20189;-81
2020/12/10 07:49:31;;;;;;;20.33;11.73;;;2.30;67.20;;;;;;4998328;28;20220;-80
2020/12/10 07:52:03;;;;;;;21.45;13.52;;;2.30;66.40;;;;;;4999610;28;20185;-81
2020/12/10 07:54:43;;;;;;;18.60;10.82;;;2.40;65.80;;;;;;4998954;28;20204;-81
2020/12/10 07:57:32;;;;;;;15.38;10.55;;;2.40;65.20;;;;;;4999291;28;20193;-82
2020/12/10 08:00:04;;;;;;;16.70;10.98;;;2.40;64.90;;;;;;4999094;28;20209;-79
2020/12/10 08:10:07;;;;;;;16.33;9.75;;;2.40;63.20;;;;;;4987978;28;20228;-80
2020/12/10 08:16:32;;;;;;;17.27;9.60;;;2.50;62.80;;;;;;4965927;29;20210;-80
2020/12/10 08:19:30;;;;;;;15.15;9.82;;;2.50;63.40;;;;;;4948905;29;20762;-79
2020/12/10 08:22:02;;;;;;;19.88;10.52;;;2.60;62.60;;;;;;4957528;28;20233;-80
2020/12/10 08:24:46;;;;;;;15.02;9.43;;;2.60;62.30;;;;;;4985087;28;20209;-79
2020/12/10 08:27:43;;;;;;;18.30;11.55;;;2.60;62.30;;;;;;4984270;28;20209;-80
2020/12/10 08:30:34;;;;;;;18.60;10.52;;;2.60;62.30;;;;;;4999520;28;20219;-80
2020/12/10 08:33:07;;;;;;;18.88;12.02;;;2.60;62.30;;;;;;5000700;28;20236;-79
2020/12/10 08:35:44;;;;;;;19.58;11.15;;;2.60;62.30;;;;;;4996533;28;20252;-81
2020/12/10 08:40:59;;;;;;;17.17;10.68;;;2.50;62.60;;;;;;5014129;28;20196;-81
2020/12/10 08:43:50;;;;;;;19.23;10.32;;;2.60;62.30;;;;;;4921903;28;20220;-79
2020/12/10 08:46:42;;;;;;;17.13;10.88;;;2.70;62.30;;;;;;5008481;28;20217;-81
2020/12/10 08:49:46;;;;;;;18.25;10.10;;;2.70;62.30;;;;;;5014046;28;20213;-81
2020/12/10 08:52:44;;;;;;;16.27;11.15;;;2.80;63.10;;;;;;5013642;28;20279;-81
2020/12/10 08:55:16;;;;;;;20.23;11.45;;;2.80;60.80;;;;;;5015741;28;20271;-80
2020/12/10 09:01:12;;;;;;;16.02;10.13;;;2.90;61.20;;;;;;4996056;28;20236;-82
2020/12/10 09:04:03;;;;;;;17.55;10.35;;;2.80;60.30;;;;;;4984784;28;20657;-80
2020/12/10 09:06:42;;;;;;;19.45;11.73;;;2.80;60.50;;;;;;4980486;28;20303;-82
2020/12/10 09:09:09;;;;;;;16.60;10.45;;;2.70;60.80;;;;;;4984019;28;20216;-79
2020/12/10 09:11:40;;;;;;;24.35;12.70;;;2.80;61.50;;;;;;4964562;28;20256;-80
2020/12/10 09:14:08;;;;;;;19.42;11.23;;;2.70;61.80;;;;;;4988008;28;20235;-80
2020/12/10 09:16:34;;;;;;;20.45;12.10;;;2.90;62.30;;;;;;4989920;28;20221;-78
2020/12/10 09:19:02;;;;;;;17.48;10.88;;;2.80;61.40;;;;;;4990257;28;20681;-79
2020/12/10 09:21:42;;;;;;;19.98;11.73;;;2.90;62.10;;;;;;4991709;28;20233;-80
2020/12/10 09:24:09;;;;;;;18.05;10.57;;;2.90;61.60;;;;;;4993084;28;20236;-81
2020/12/10 09:26:44;;;;;;;16.65;10.45;;;2.90;62.20;;;;;;4993499;28;20201;-81
2020/12/10 09:29:15;;;;;;;20.23;12.10;;;2.90;61.90;;;;;;4990674;28;20212;-81
2020/12/10 09:31:56;;;;;;;21.10;12.00;;;2.80;62.40;;;;;;4987323;28;20181;-80
2020/12/10 09:34:27;;;;;;;20.27;12.13;;;2.80;62.40;;;;;;4989562;28;20655;-80
2020/12/10 09:37:05;;;;;;;20.73;11.07;;;2.80;61.90;;;;;;4961061;28;20209;-81
2020/12/10 09:39:37;;;;;;;20.52;12.25;;;2.90;62.50;;;;;;4990875;28;20200;-79
2020/12/10 09:42:06;;;;;;;19.08;11.77;;;3.00;62.60;;;;;;4986348;28;20216;-80
2020/12/10 09:47:52;;;;;;;19.95;12.23;;;2.90;62.50;;;;;;4924054;29;20198;-81
2020/12/10 09:50:24;;;;;;;21.75;11.90;;;3.00;62.60;;;;;;4947645;29;20302;-80
2020/12/10 09:53:05;;;;;;;25.58;13.27;;;3.20;62.30;;;;;;4943346;29;20750;-80
2020/12/10 09:58:34;;;;;;;21.83;12.75;;;3.20;61.00;;;;;;4946876;29;20264;-79
2020/12/10 10:01:22;;;;;;;19.95;12.85;;;3.10;61.40;;;;;;4943826;29;20245;-80
2020/12/10 10:04:11;;;;;;;21.88;12.20;;;3.00;62.30;;;;;;4959220;29;20835;-81
2020/12/10 10:09:55;;;;;;;22.48;12.70;;;3.20;61.00;;;;;;4898436;29;20249;-80
2020/12/10 10:12:40;;;;;;;21.25;12.35;;;3.50;60.90;;;;;;4891978;29;20243;-81
2020/12/10 10:17:58;;;;;;;22.42;13.00;;;3.40;60.90;;;;;;4893169;29;20224;-81
2020/12/10 10:20:30;;;;;;;20.13;11.98;;;3.30;61.00;;;;;;4899601;29;20230;-81
2020/12/10 10:23:09;;;;;;;22.35;11.95;;;3.50;60.10;;;;;;4899923;29;20597;-81
2020/12/10 10:32:33;;;;;;;18.38;12.40;;;3.60;60.30;;;;;;4845496;29;20225;-82
2020/12/10 10:35:07;;;;;;;24.40;12.00;;;3.40;60.30;;;;;;4843988;29;20214;-80
2020/12/10 10:37:43;;;;;;;17.60;11.23;;;3.40;60.70;;;;;;4844900;29;20214;-81
2020/12/10 10:40:43;;;;;;;21.13;11.45;;;3.50;60.20;;;;;;4838961;29;20278;-79
2020/12/10 10:43:24;;;;;;;20.75;12.20;;;3.70;60.00;;;;;;4844656;29;20246;-81
2020/12/10 10:45:54;;;;;;;19.70;11.43;;;3.70;58.80;;;;;;4844428;29;20234;-80
2020/12/10 10:49:15;;;;;;;23.48;13.07;;;3.70;59.20;;;;;;4843198;29;20226;-81
2020/12/10 10:52:02;;;;;;;20.88;11.40;;;3.60;58.70;;;;;;4845157;29;20240;-82
2020/12/10 10:57:22;;;;;;;18.15;11.40;;;3.50;59.70;;;;;;4871458;29;20206;-80
2020/12/10 11:00:07;;;;;;;18.83;10.73;;;3.50;60.20;;;;;;4868142;29;20279;-81
2020/12/10 11:02:45;;;;;;;24.75;11.70;;;3.50;60.20;;;;;;4882686;29;20363;-82
2020/12/10 11:05:30;;;;;;;20.70;13.25;;;3.50;60.00;;;;;;4906973;29;20199;-81
2020/12/10 11:11:08;;;;;;;20.85;12.15;;;3.80;58.90;;;;;;4999097;28;20228;-79
2020/12/10 11:13:48;;;;;;;19.35;12.23;;;3.60;59.70;;;;;;4999234;28;20253;-79
2020/12/10 11:16:21;;;;;;;19.80;12.52;;;3.70;58.80;;;;;;5001008;28;20205;-80
2020/12/10 11:21:44;;;;;;;22.13;12.35;;;3.80;59.20;;;;;;5000624;28;20208;-80
2020/12/10 11:24:25;;;;;;;24.13;12.38;;;3.90;58.00;;;;;;5000319;28;20292;-80
2020/12/10 11:26:59;;;;;;;19.88;12.23;;;3.80;58.90;;;;;;5000504;28;20193;-80
2020/12/10 11:29:35;;;;;;;20.25;12.40;;;3.60;59.30;;;;;;5000519;28;20186;-81
2020/12/10 11:32:07;;;;;;;23.90;13.35;;;3.70;59.20;;;;;;4999840;28;20178;-81
2020/12/10 11:34:38;;;;;;;23.25;13.50;;;3.80;59.60;;;;;;4997312;28;20304;-81
2020/12/10 11:37:09;;;;;;;22.58;12.95;;;3.70;59.30;;;;;;4990618;28;20209;-80
2020/12/10 11:42:25;;;;;;;22.15;13.00;;;3.50;60.70;;;;;;4988879;28;20284;-80
2020/12/10 11:45:00;;;;;;;24.08;12.43;;;3.60;60.30;;;;;;4994351;28;20200;-80
2020/12/10 11:47:35;;;;;;;27.77;13.80;;;3.60;60.20;;;;;;4992224;28;20248;-81
2020/12/10 12:00:24;;;;;;;22.88;14.45;;;4.00;58.30;;;;;;4992892;28;20217;-82
2020/12/10 12:09:06;;;;;;;23.88;13.27;;;3.80;59.30;;;;;;4994029;28;20256;-81
2020/12/10 12:20:56;;;;;;;31.20;14.50;;;3.60;59.30;;;;;;4997646;28;20249;-81
2020/12/10 12:23:36;;;;;;;23.50;14.23;;;3.70;58.80;;;;;;4981365;28;20220;-81
2020/12/10 12:26:19;;;;;;;23.48;13.48;;;3.80;58.90;;;;;;4998030;28;20190;-80
2020/12/10 12:29:49;;;;;;;20.27;12.15;;;3.90;58.30;;;;;;4998972;28;20286;-80
2020/12/10 12:32:33;;;;;;;26.80;14.10;;;3.90;58.10;;;;;;4977452;28;20261;-81
2020/12/10 12:35:13;;;;;;;24.25;12.35;;;3.90;57.80;;;;;;5014086;28;20222;-81
2020/12/10 12:38:03;;;;;;;20.02;12.75;;;3.80;58.10;;;;;;4985111;28;20693;-81
2020/12/10 12:40:32;;;;;;;29.67;14.00;;;3.70;58.60;;;;;;4997552;28;20198;-80
2020/12/10 12:43:04;;;;;;;26.38;13.98;;;3.70;58.80;;;;;;5000728;28;20240;-81
2020/12/10 12:45:32;;;;;;;22.27;13.27;;;3.80;58.80;;;;;;5004722;28;20269;-81
2020/12/10 12:48:00;;;;;;;27.20;13.00;;;3.70;58.40;;;;;;5001511;28;20239;-79
2020/12/10 12:50:32;;;;;;;23.52;13.80;;;3.70;58.80;;;;;;5001929;28;20229;-79
2020/12/10 12:53:01;;;;;;;20.02;12.57;;;3.70;58.80;;;;;;5003315;28;20236;-78
2020/12/10 12:55:28;;;;;;;21.40;13.05;;;3.70;58.80;;;;;;5004614;28;20208;-80
2020/12/10 12:57:58;;;;;;;20.08;13.13;;;3.70;58.80;;;;;;5004066;28;20599;-80
2020/12/10 13:00:29;;;;;;;20.05;12.55;;;3.60;58.80;;;;;;5005584;28;20205;-79
2020/12/10 13:02:56;;;;;;;24.00;12.57;;;3.60;58.80;;;;;;5005618;28;20294;-79
2020/12/10 13:05:30;;;;;;;23.08;13.75;;;3.50;59.00;;;;;;5005364;28;20216;-78
2020/12/10 13:07:57;;;;;;;20.58;12.40;;;3.60;59.40;;;;;;5009386;28;20220;-81
2020/12/10 13:10:24;;;;;;;22.60;13.25;;;3.60;59.20;;;;;;5014447;28;20259;-81
2020/12/10 13:12:50;;;;;;;23.20;12.55;;;3.60;59.70;;;;;;5012178;28;20236;-79
2020/12/10 13:15:17;;;;;;;20.55;12.45;;;3.70;59.20;;;;;;5014886;28;20204;-80
2020/12/10 13:17:44;;;;;;;22.88;13.25;;;3.70;58.80;;;;;;5017129;28;20196;-80
2020/12/10 13:20:10;;;;;;;21.42;12.60;;;3.80;58.90;;;;;;5017870;28;20248;-79
2020/12/10 13:22:38;;;;;;;21.23;12.20;;;3.80;58.90;;;;;;5018269;28;20243;-80
2020/12/10 13:25:05;;;;;;;21.00;12.90;;;3.80;58.90;;;;;;5017899;28;20201;-78
2020/12/10 13:27:31;;;;;;;22.48;12.73;;;3.70;58.80;;;;;;5015484;28;20193;-80
2020/12/10 13:29:58;;;;;;;21.55;13.57;;;3.80;58.90;;;;;;5007958;28;20229;-78
2020/12/10 13:32:24;;;;;;;22.17;13.13;;;3.80;58.30;;;;;;5006314;28;20233;-79
2020/12/10 13:34:51;;;;;;;16.40;11.00;;;3.70;58.80;;;;;;5005694;28;20208;-79
2020/12/10 13:37:17;;;;;;;20.23;12.38;;;3.70;58.80;;;;;;5002238;28;20280;-78
2020/12/10 13:39:45;;;;;;;23.05;13.30;;;3.90;58.50;;;;;;5001439;28;20213;-78
2020/12/10 13:42:12;;;;;;;25.70;12.80;;;3.70;58.30;;;;;;5000444;28;20296;-79
2020/12/10 13:44:38;;;;;;;21.23;11.55;;;3.70;58.80;;;;;;5000247;28;20205;-78
2020/12/10 13:47:05;;;;;;;21.83;12.85;;;3.80;58.90;;;;;;4999734;28;20683;-78
2020/12/10 13:49:31;;;;;;;23.83;12.88;;;3.70;58.90;;;;;;5003496;28;20209;-78
2020/12/10 13:51:58;;;;;;;20.13;12.40;;;3.70;58.80;;;;;;5004453;28;20596;-79
2020/12/10 13:54:26;;;;;;;20.75;13.15;;;3.80;58.90;;;;;;5005189;28;20796;-79
2020/12/10 13:56:53;;;;;;;22.15;12.77;;;3.70;58.80;;;;;;5006075;28;20205;-79
2020/12/10 13:59:21;;;;;;;19.58;13.27;;;3.70;58.80;;;;;;5011118;28;20204;-80
2020/12/10 14:01:48;;;;;;;18.17;12.18;;;3.70;58.80;;;;;;5008425;28;20205;-80
2020/12/10 14:04:14;;;;;;;19.70;12.23;;;3.80;58.30;;;;;;5008309;28;20200;-79
2020/12/10 14:06:41;;;;;;;18.25;11.75;;;3.70;58.50;;;;;;5012981;28;20959;-78
2020/12/10 14:09:07;;;;;;;22.45;12.07;;;3.80;58.90;;;;;;5012763;28;20204;-79
2020/12/10 14:11:37;;;;;;;21.13;12.38;;;3.90;59.00;;;;;;5004576;28;20233;-78
2020/12/10 14:14:04;;;;;;;19.95;12.43;;;4.00;58.10;;;;;;4999039;28;20256;-77
2020/12/10 14:16:31;;;;;;;19.45;11.55;;;4.00;57.60;;;;;;4998106;28;20212;-78
2020/12/10 14:18:57;;;;;;;21.15;12.23;;;3.90;58.30;;;;;;4998655;28;20204;-77
2020/12/10 14:21:24;;;;;;;23.13;12.38;;;3.70;58.80;;;;;;4999909;28;20237;-77
2020/12/10 14:23:51;;;;;;;16.48;10.55;;;3.90;59.00;;;;;;5003915;28;20224;-77
2020/12/10 14:26:18;;;;;;;16.52;12.23;;;3.80;57.70;;;;;;5007096;28;20197;-77
2020/12/10 14:28:44;;;;;;;17.20;11.13;;;3.70;57.50;;;;;;5003950;28;20564;-78
2020/12/10 14:31:12;;;;;;;18.30;11.48;;;3.70;58.40;;;;;;5004059;28;20225;-78
2020/12/10 14:33:39;;;;;;;15.07;9.85;;;3.80;58.30;;;;;;5003889;28;20256;-78
2020/12/10 14:36:06;;;;;;;15.75;9.90;;;3.80;57.70;;;;;;5005553;28;20211;-77
2020/12/10 14:38:34;;;;;;;16.58;10.05;;;3.80;57.30;;;;;;5005010;28;20212;-78
2020/12/10 14:41:01;;;;;;;11.80;8.35;;;3.90;55.90;;;;;;5005039;28;20208;-77
2020/12/10 14:43:28;;;;;;;11.45;7.85;;;3.80;55.50;;;;;;5004483;28;20244;-78
2020/12/10 14:45:54;;;;;;;11.93;8.57;;;3.80;55.40;;;;;;5005418;28;20220;-77
2020/12/10 14:48:22;;;;;;;15.70;9.85;;;3.90;55.50;;;;;;5010618;28;20220;-78
2020/12/10 14:50:49;;;;;;;15.05;9.35;;;4.00;55.30;;;;;;5012463;28;20228;-79
2020/12/10 14:53:15;;;;;;;11.73;7.70;;;4.10;55.40;;;;;;5016403;28;20247;-79
2020/12/10 14:55:42;;;;;;;7.15;5.75;;;4.20;54.60;;;;;;5015766;28;20232;-79
2020/12/10 14:58:09;;;;;;;7.80;5.80;;;4.20;53.30;;;;;;5016823;28;20236;-80
2020/12/10 15:00:36;;;;;;;7.32;5.68;;;4.20;52.50;;;;;;5016760;28;20205;-79
2020/12/10 15:03:03;;;;;;;8.48;6.80;;;4.20;52.20;;;;;;5014631;28;20287;-79
2020/12/10 15:05:31;;;;;;;8.75;6.57;;;4.30;52.00;;;;;;5015896;28;20213;-80
2020/12/10 15:07:58;;;;;;;8.60;6.57;;;4.20;51.50;;;;;;5020300;28;20207;-80
2020/12/10 15:10:25;;;;;;;9.07;7.40;;;4.10;52.10;;;;;;5020131;28;20245;-79
2020/12/10 15:12:57;;;;;;;7.15;5.93;;;4.20;52.20;;;;;;5016797;28;20240;-79
2020/12/10 15:15:25;;;;;;;8.60;6.60;;;4.20;52.00;;;;;;5013538;28;20216;-81
2020/12/10 15:17:53;;;;;;;8.45;6.85;;;4.10;52.10;;;;;;5011511;28;20213;-79
2020/12/10 15:20:20;;;;;;;9.27;7.18;;;4.20;51.90;;;;;;5014246;28;20209;-79
2020/12/10 15:22:48;;;;;;;8.18;6.15;;;4.00;51.70;;;;;;5015254;28;20228;-78
2020/12/10 15:25:16;;;;;;;12.45;11.15;;;4.00;51.80;;;;;;5018353;28;20225;-80